Leon, OK (73441)

12:06 PM CDT on August 28, 2014 (GMT -0500)
Rural | Change Station
CLOSE
Current Station
Personal Weather Station
Location: Saint Jo, TX
Elevation: 981 ft
Nearby Weather Stations

Elev 981 ft 33.84 °N, 97.58 °W | Updated 6 minutes ago

Partly Cloudy
Partly Cloudy
92.7 °F
Feels Like 97 °F
N
4.2
Wind Variable Wind from South

Today
High -- | Low -- °F
--% Chance of Precip.
Yesterday
High -- | Low -- °F
Precip. -- in
7:00 AM 8:00 PM
Waxing Crescent, 9% visible
Pressure 29.97 in
Visibility 10.0 miles
Clouds Scattered Clouds 4500 ft
Mostly Cloudy 5000 ft
Heat Index 97 °F
Dew Point 68 °F
Humidity 44%
Rainfall 0.00 in
Snow Depth Not available.
UV 5 out of 12
Pollen 10.00 out of 12
Air Quality Not available.
Flu Activity Not available.
METAR K1F0 281655Z AUTO 21007KT 150V230 10SM SCT045 BKN050 31/17 A2997 RMK AO2

More Conditions Fewer Conditions

Pressure 29.97 in
Visibility 10.0 miles
Clouds Scattered Clouds 4500 ft
Mostly Cloudy 5000 ft
Heat Index 97 °F
Dew Point 68 °F
Humidity 44%
Rainfall 0.00 in
Snow Depth Not available.
UV 5 out of 12
Pollen 10.00 out of 12
Air Quality Not available.
Flu Activity Not available.
METAR K1F0 281655Z AUTO 21007KT 150V230 10SM SCT045 BKN050 31/17 A2997 RMK AO2

More Conditions Fewer Conditions

10-Day Weather Forecast

Almanac

Astronomy

Aug. 28, 2014 Rise Set
Actual Time 7:00 AM CDT 8:00 PM CDT
Civil Twilight 6:35 AM CDT 8:26 PM CDT
Nautical Twilight 6:04 AM CDT 8:56 PM CDT
Astronomical Twilight 5:33 AM CDT 9:28 PM CDT
Moon 9:44 AM CDT 9:36 PM CDT
Length of Visible Light 13h 51m
Length of Day
13h 00m
Tomorrow will be 1m 59s shorter.
Waxing Crescent, 9% of the Moon is Illuminated
Today
Waxing Crescent
Sep 2
First Quarter
Sep 8
Full
Sep 15
Last Quarter
Sep 24
New

Today's Extremes

State Highs State Lows

Community

WunderPhotos

Upload Photos

1,748,015 photos uploaded!

Nearby

Snow Depth

Station Depth Elevation
No new snow has been reported.

Earthquake Activity

City Distance Mag. Time & Date
Guthrie, Oklahoma 128 miles 3.2 11:05 AM CDT
2014-08-26
Harrah, Oklahoma 109 miles 2.5 8:53 AM CDT
2014-08-26
Minimum magnitude displayed is 2.5.

Coastal Water Temperatures

Place Temperature
No Stations Reporting

Nearby Weather Stations